Terminal Aerodrome Forecast
Issued by NWS Atlanta, GA

Home | Current Version | Previous Version | Text Only | Print | Product List | Glossary On
Versions: 1 2 3 4 5 6 7 8 9 10 11 12 13 14 15 16 17
000
FTUS42 KFFC 252337
TAFMCN
TAF
KMCN 252337Z 2600/2624 31005KT P6SM SCT045
     FM261200 16006KT P6SM SCT035 SCT100 BKN250
     FM261500 12007KT P6SM VCSH SCT025 BKN050 PROB30 2618/2622 4SM
      -TSRA BKN025CB
     FM262200 17006KT 6SM -SHRA BKN030 OVC045=

USA.gov is the U.S. government's official web portal to all federal, state and local government web resources and services.